Ontario International Airport
KONT : now visible

Airfield :











YOU CAN JOIN US ON...

 
LOGIN :

Register | Disclaimer

   EN    FR    IT 

 









Legend :    VFR   Marginal VFR   IFR   Intensive IFR   Very Intensive IFR
Visi :
Ceiling :
>= 8 km
>= 3000ft
5 to 8 km
1000 to 3000 ft
1500m to 5 km
500 to 1000 ft
800 to 1500m
200 to 500 ft
< 800m
< 200 ft
Symbols :   Thunderstorms  Fog  Heavy snow  Heavy precipitations  Wind > 20 kt






- Airport Elevation : 944 ft
- IATA code : ONT


KONT - Ontario International

CURRENT METAR :
  • 032053Z 27006KT 10SM CLR 28/11 A2990 RMK AO2 SLP110 T02780111 56014

EXPIRED METARs :
  • 031953Z 26008KT 10SM CLR 28/11 A2991 RMK AO2 SLP113 T02780111
  • 031853Z 29005KT 10SM CLR 25/13 A2993 RMK AO2 SLP120 T02500133
  • 030453Z 26010KT 10SM CLR 20/14 A2991 RMK AO2 SLP115 T02000144

TAF KONT
Valid from the 03 at 18:00 until the 05 at 00:00 UTC


031724Z 0318/0424 VRB03KT P6SM FEW025
FM032000 26010G17KT P6SM SKC
FM040700 25006KT P6SM SKC
FM041100 VRB03KT 5SM BR BKN012
FM041500 VRB04KT 6SM HZ SKC
FM042000 25009KT P6SM SKC
KZLA FIR / North America



MET'MAP, your aeronautical weather chart ! - Copyright ORBIFLY December 2007 - Disclaimer

ORBIFLY MET'MAP TEAM :

Programming & Development : Alexandra Zaïnal
Original concept : Baudouin d'Aumeries
Technical & hardware support : Manuel Goepfert
Assistance : Marc-Olivier Méhu




SOURCES & CREDITS :

   NOAA       Earth
Advisory